Time;durP1;ratioP1;P1;durP2;ratioP2;P2;SDS_P1;SDS_P2;PMS_P1;PMS_P2;Temp;Humidity;BMP_temperature;BMP_pressure;BME280_temperature;BME280_humidity;BME280_pressure;Samples;Min_cycle;Max_cycle;Signal;HPM_P1;HPM_P2
2021/12/23 00:00:15;;;;;;;5.55;3.00;;;20.80;39.40;;;;;;5018441;28;20128;-69
2021/12/23 00:02:41;;;;;;;4.82;3.20;;;20.90;39.50;;;;;;5017083;28;20060;-69
2021/12/23 00:05:08;;;;;;;5.10;3.00;;;20.90;39.50;;;;;;5018638;28;20033;-69
2021/12/23 00:07:34;;;;;;;4.45;2.92;;;20.90;39.60;;;;;;5015178;28;20042;-69
2021/12/23 00:10:06;;;;;;;4.70;2.75;;;20.90;39.70;;;;;;5025915;28;20037;-67
2021/12/23 00:12:43;;;;;;;3.78;2.95;;;20.90;39.80;;;;;;5023771;28;20054;-68
2021/12/23 00:15:27;;;;;;;4.18;3.08;;;20.90;39.90;;;;;;5026488;28;20156;-67
2021/12/23 00:23:25;;;;;;;4.28;2.92;;;20.90;40.00;;;;;;5027055;28;20100;-68
2021/12/23 00:25:52;;;;;;;3.80;2.90;;;20.90;40.10;;;;;;5025200;28;20049;-69
2021/12/23 00:28:19;;;;;;;3.47;2.93;;;20.90;40.10;;;;;;5023289;28;20086;-69
2021/12/23 00:30:44;;;;;;;4.25;3.13;;;20.90;40.20;;;;;;5025238;28;20046;-69
2021/12/23 00:33:10;;;;;;;4.05;2.90;;;20.90;40.20;;;;;;5018778;28;20034;-68
2021/12/23 00:35:35;;;;;;;3.53;2.55;;;20.90;40.30;;;;;;5006437;28;20052;-68
2021/12/23 00:38:07;;;;;;;4.63;2.72;;;20.90;40.30;;;;;;5010921;28;20440;-69
2021/12/23 00:40:32;;;;;;;3.30;2.67;;;20.90;40.40;;;;;;5023830;28;20041;-69
2021/12/23 00:42:58;;;;;;;5.05;3.00;;;20.90;40.40;;;;;;5021234;28;20037;-70
2021/12/23 00:45:24;;;;;;;4.05;2.78;;;20.90;40.50;;;;;;5006522;28;20065;-69
2021/12/23 00:47:49;;;;;;;3.42;2.78;;;20.90;40.60;;;;;;5014072;28;20058;-65
2021/12/23 00:50:15;;;;;;;4.55;2.55;;;20.90;40.60;;;;;;5018005;28;20046;-67
2021/12/23 00:52:41;;;;;;;3.80;2.75;;;20.90;40.60;;;;;;5013940;28;20045;-69
2021/12/23 00:55:10;;;;;;;4.35;2.83;;;20.90;40.70;;;;;;5005320;28;20050;-68
2021/12/23 00:57:40;;;;;;;3.78;2.80;;;20.90;40.70;;;;;;5013623;28;20485;-67
2021/12/23 01:00:15;;;;;;;3.20;2.78;;;20.90;40.80;;;;;;5012006;28;20042;-68
2021/12/23 01:02:44;;;;;;;3.88;2.55;;;20.90;40.90;;;;;;5015576;28;20153;-69
2021/12/23 01:05:10;;;;;;;3.58;2.90;;;20.90;40.90;;;;;;5036169;28;20033;-69
2021/12/23 01:07:35;;;;;;;4.43;2.88;;;20.90;40.90;;;;;;5016596;28;20034;-69
2021/12/23 01:10:01;;;;;;;3.80;2.72;;;20.90;41.00;;;;;;5020591;28;20187;-68
2021/12/23 01:12:33;;;;;;;5.75;3.03;;;20.90;41.10;;;;;;5024356;28;20096;-69
2021/12/23 01:15:09;;;;;;;3.78;2.85;;;20.90;41.10;;;;;;5020175;28;20041;-68
2021/12/23 01:17:53;;;;;;;10.45;3.10;;;20.90;41.00;;;;;;5015218;28;20045;-68
2021/12/23 01:20:25;;;;;;;10.85;2.85;;;20.90;41.10;;;;;;5025351;28;20251;-68
2021/12/23 01:22:51;;;;;;;4.03;2.83;;;20.90;41.10;;;;;;5023793;28;20103;-70
2021/12/23 01:25:18;;;;;;;4.30;2.90;;;20.90;41.10;;;;;;5017754;28;20065;-66
2021/12/23 01:27:43;;;;;;;4.57;3.13;;;21.00;41.20;;;;;;5022793;28;20052;-69
2021/12/23 01:30:09;;;;;;;12.15;3.20;;;21.00;41.10;;;;;;5015176;28;20033;-68
2021/12/23 01:32:35;;;;;;;4.15;2.90;;;20.90;41.20;;;;;;5010234;28;20049;-69
2021/12/23 01:35:00;;;;;;;4.75;3.03;;;20.90;41.20;;;;;;5020072;28;20056;-69
2021/12/23 01:37:26;;;;;;;5.55;3.08;;;21.00;41.30;;;;;;5017110;28;20344;-69
2021/12/23 01:39:51;;;;;;;3.72;2.55;;;21.00;41.30;;;;;;5019259;28;20420;-68
2021/12/23 01:42:17;;;;;;;3.88;2.92;;;21.00;41.40;;;;;;5013488;28;20072;-67
2021/12/23 01:44:43;;;;;;;3.40;2.65;;;20.90;41.30;;;;;;5019463;28;20046;-69
2021/12/23 01:47:08;;;;;;;3.35;2.70;;;21.00;41.40;;;;;;5024771;28;20044;-68
2021/12/23 01:49:34;;;;;;;4.75;2.85;;;20.90;41.40;;;;;;5026014;28;20049;-68
2021/12/23 01:51:59;;;;;;;5.18;3.03;;;20.90;41.50;;;;;;5028114;28;20033;-68
2021/12/23 01:54:25;;;;;;;4.07;2.72;;;20.90;41.50;;;;;;5020009;28;20049;-66
2021/12/23 01:56:50;;;;;;;2.97;2.40;;;21.00;41.60;;;;;;5028461;28;20061;-69
2021/12/23 01:59:16;;;;;;;3.72;2.90;;;21.00;41.70;;;;;;5027151;28;20586;-67
2021/12/23 02:01:44;;;;;;;5.18;2.70;;;20.90;41.60;;;;;;5027487;28;20041;-68
2021/12/23 02:04:10;;;;;;;3.50;2.78;;;20.90;41.60;;;;;;5023106;28;20505;-66
2021/12/23 02:06:35;;;;;;;5.57;2.95;;;20.90;41.70;;;;;;5020537;28;20076;-68
2021/12/23 02:09:04;;;;;;;4.00;2.85;;;20.90;41.70;;;;;;5030216;28;20413;-68
2021/12/23 02:11:29;;;;;;;4.65;2.80;;;21.00;41.70;;;;;;5022380;28;20053;-67
2021/12/23 02:13:56;;;;;;;4.30;3.13;;;20.90;41.60;;;;;;5021866;28;20046;-67
2021/12/23 02:16:22;;;;;;;3.70;2.63;;;20.90;41.60;;;;;;5027807;28;20052;-67
2021/12/23 02:18:47;;;;;;;4.68;2.95;;;21.00;41.70;;;;;;5027963;28;20045;-68
2021/12/23 02:21:13;;;;;;;3.72;2.83;;;21.00;41.70;;;;;;5025225;28;20041;-66
2021/12/23 02:23:38;;;;;;;3.30;2.75;;;20.90;41.60;;;;;;5020795;28;20124;-68
2021/12/23 02:26:04;;;;;;;4.30;2.88;;;21.00;41.70;;;;;;5020096;28;20038;-69
2021/12/23 02:28:31;;;;;;;3.40;2.70;;;20.90;41.60;;;;;;5030252;28;20129;-68
2021/12/23 02:30:56;;;;;;;3.70;2.80;;;20.90;41.70;;;;;;5040710;28;20549;-68
2021/12/23 02:33:25;;;;;;;4.80;3.00;;;21.00;41.80;;;;;;5029836;28;20050;-66
2021/12/23 02:35:53;;;;;;;3.72;3.00;;;21.00;41.70;;;;;;5018887;28;20053;-68
2021/12/23 02:38:19;;;;;;;4.10;2.85;;;21.00;41.80;;;;;;5015077;28;20099;-67
2021/12/23 02:40:45;;;;;;;4.13;3.30;;;21.00;41.80;;;;;;5020640;28;20046;-66
2021/12/23 02:43:19;;;;;;;3.75;2.88;;;20.90;41.70;;;;;;5030145;28;20072;-68
2021/12/23 02:45:48;;;;;;;4.32;2.78;;;21.00;41.80;;;;;;5028562;28;20072;-69
2021/12/23 02:48:30;;;;;;;4.22;2.70;;;21.00;41.80;;;;;;5030117;28;20436;-67
2021/12/23 02:50:56;;;;;;;3.47;2.70;;;21.00;41.80;;;;;;5018506;28;21076;-65
2021/12/23 02:53:23;;;;;;;3.88;2.97;;;21.00;41.80;;;;;;5014330;28;20041;-69
2021/12/23 02:55:48;;;;;;;3.58;2.75;;;21.00;41.80;;;;;;5027713;28;20319;-67
2021/12/23 02:58:14;;;;;;;3.72;2.92;;;21.00;41.80;;;;;;5026328;28;20554;-69
2021/12/23 03:00:44;;;;;;;3.80;3.10;;;21.00;41.80;;;;;;5025896;28;20043;-67
2021/12/23 03:03:10;;;;;;;3.92;3.05;;;20.90;41.90;;;;;;5027178;28;20400;-67
2021/12/23 03:05:38;;;;;;;;;;;21.00;41.80;;;;;;5017127;28;20112;-67
2021/12/23 03:08:04;;;;;;;3.92;2.70;;;21.00;41.90;;;;;;5026427;28;19925;-65
2021/12/23 03:10:30;;;;;;;3.78;2.90;;;21.00;41.80;;;;;;5016872;28;20076;-69
2021/12/23 03:12:56;;;;;;;3.63;2.70;;;21.00;41.80;;;;;;5024121;28;20053;-67
2021/12/23 03:15:21;;;;;;;4.43;2.90;;;21.00;41.80;;;;;;5023313;28;20045;-68
2021/12/23 03:17:47;;;;;;;3.22;2.72;;;21.00;41.80;;;;;;5011614;28;20066;-69
2021/12/23 03:20:13;;;;;;;4.05;2.80;;;21.00;41.80;;;;;;5028637;28;20037;-68
2021/12/23 03:22:38;;;;;;;4.07;2.70;;;21.00;41.80;;;;;;5024811;28;20048;-65
2021/12/23 03:25:05;;;;;;;3.40;2.55;;;20.90;42.60;;;;;;5011981;28;20125;-68
2021/12/23 03:27:30;;;;;;;3.75;3.03;;;21.00;41.90;;;;;;5023305;28;20135;-69
2021/12/23 03:29:57;;;;;;;4.13;3.10;;;21.00;41.90;;;;;;5028136;28;20140;-67
2021/12/23 03:32:24;;;;;;;4.55;2.88;;;21.00;41.90;;;;;;5022337;28;20460;-64
2021/12/23 03:34:51;;;;;;;4.47;3.00;;;21.00;41.90;;;;;;5018960;28;20034;-68
2021/12/23 03:37:16;;;;;;;4.82;3.00;;;21.00;41.90;;;;;;5015731;28;20173;-68
2021/12/23 03:39:42;;;;;;;4.80;2.65;;;21.00;41.90;;;;;;5017083;28;20034;-69
2021/12/23 03:42:08;;;;;;;4.18;2.95;;;21.00;41.90;;;;;;5023479;28;20053;-68
2021/12/23 03:44:33;;;;;;;3.95;2.78;;;21.00;41.90;;;;;;5017144;28;20092;-67
2021/12/23 03:46:59;;;;;;;3.67;2.50;;;21.00;41.90;;;;;;5021002;28;20433;-68
2021/12/23 03:49:24;;;;;;;4.72;2.80;;;20.90;42.00;;;;;;5023779;28;20049;-67
2021/12/23 03:51:50;;;;;;;3.47;2.90;;;21.00;41.90;;;;;;5021055;28;20037;-67
2021/12/23 03:54:16;;;;;;;3.78;2.60;;;21.00;41.90;;;;;;5027155;28;20045;-66
2021/12/23 03:56:44;;;;;;;3.22;2.67;;;21.00;41.90;;;;;;5025674;28;20132;-68
2021/12/23 03:59:09;;;;;;;5.03;3.17;;;21.00;41.90;;;;;;5007675;28;20125;-68
2021/12/23 04:01:35;;;;;;;3.63;3.03;;;20.90;42.60;;;;;;5020111;28;20122;-64
2021/12/23 04:04:01;;;;;;;4.05;2.70;;;21.00;41.80;;;;;;5018305;28;20088;-66
2021/12/23 04:06:26;;;;;;;4.65;2.83;;;21.00;41.80;;;;;;5010525;28;20414;-69
2021/12/23 04:08:55;;;;;;;3.58;3.00;;;20.90;41.70;;;;;;5024273;28;20868;-68
2021/12/23 04:11:20;;;;;;;4.07;3.08;;;20.90;41.60;;;;;;5027107;28;20107;-68
2021/12/23 04:13:46;;;;;;;3.55;2.80;;;20.90;41.70;;;;;;5025205;28;20037;-69
2021/12/23 04:16:12;;;;;;;4.47;2.97;;;21.00;41.80;;;;;;5027044;28;20551;-69
2021/12/23 04:18:37;;;;;;;4.13;2.80;;;20.90;41.70;;;;;;5024353;28;20069;-69
2021/12/23 04:21:03;;;;;;;3.63;2.88;;;20.90;41.70;;;;;;5027342;28;20060;-67
2021/12/23 04:23:31;;;;;;;3.63;2.80;;;20.90;41.70;;;;;;5006823;28;20060;-67
2021/12/23 04:25:57;;;;;;;4.88;2.80;;;20.90;41.70;;;;;;5042238;28;20516;-65
2021/12/23 04:28:24;;;;;;;4.35;3.00;;;20.90;41.70;;;;;;5019841;28;20041;-69
2021/12/23 04:30:50;;;;;;;3.75;2.60;;;20.90;41.70;;;;;;5025037;28;20492;-67
2021/12/23 04:33:16;;;;;;;6.20;2.78;;;21.00;41.70;;;;;;5022985;28;20128;-67
2021/12/23 04:35:41;;;;;;;4.72;2.88;;;20.90;41.70;;;;;;5012427;28;20081;-68
2021/12/23 04:38:07;;;;;;;3.45;2.83;;;20.90;41.70;;;;;;5018786;28;20073;-69
2021/12/23 04:40:37;;;;;;;3.70;2.70;;;21.00;41.80;;;;;;5022348;28;20041;-69
2021/12/23 04:43:05;;;;;;;4.00;2.65;;;21.00;41.80;;;;;;5001271;28;20041;-68
2021/12/23 04:45:30;;;;;;;3.90;2.88;;;21.00;41.80;;;;;;5023570;28;20062;-69
2021/12/23 04:47:56;;;;;;;4.47;3.00;;;21.00;41.80;;;;;;5018844;28;20040;-65
2021/12/23 04:50:22;;;;;;;2.90;2.50;;;21.00;41.80;;;;;;5024324;28;20832;-68
2021/12/23 04:52:48;;;;;;;3.30;3.00;;;21.00;41.80;;;;;;5014699;28;20053;-68
2021/12/23 04:55:15;;;;;;;3.92;2.72;;;21.00;41.90;;;;;;5011668;28;20069;-69
2021/12/23 04:57:41;;;;;;;4.75;2.70;;;21.00;41.80;;;;;;5024356;28;20130;-67
2021/12/23 05:00:11;;;;;;;3.33;2.60;;;20.90;41.80;;;;;;5026761;28;20440;-67
2021/12/23 05:02:37;;;;;;;3.78;2.70;;;21.00;41.90;;;;;;5015426;28;20059;-68
2021/12/23 05:05:03;;;;;;;4.28;2.83;;;21.00;41.80;;;;;;5011447;28;20045;-67
2021/12/23 05:07:29;;;;;;;4.20;2.80;;;21.00;41.80;;;;;;5020788;28;20037;-65
2021/12/23 05:09:55;;;;;;;4.20;2.80;;;21.00;41.80;;;;;;5025133;28;20049;-66
2021/12/23 05:12:20;;;;;;;4.25;2.80;;;21.00;41.80;;;;;;5016241;28;20045;-69
2021/12/23 05:14:46;;;;;;;4.00;2.80;;;21.00;41.80;;;;;;5008982;28;20126;-69
2021/12/23 05:17:11;;;;;;;3.17;2.40;;;21.00;41.80;;;;;;5024801;28;20500;-69
2021/12/23 05:19:37;;;;;;;3.30;2.70;;;21.00;41.90;;;;;;5004469;28;20053;-67
2021/12/23 05:22:03;;;;;;;3.60;2.97;;;21.00;41.80;;;;;;5021715;28;20099;-68
2021/12/23 05:24:29;;;;;;;3.60;2.80;;;21.00;41.90;;;;;;5021048;28;20045;-68
2021/12/23 05:26:55;;;;;;;3.65;2.70;;;21.00;41.90;;;;;;5021419;28;20436;-68
2021/12/23 05:29:21;;;;;;;4.07;2.65;;;21.00;41.90;;;;;;5015833;28;20124;-69
2021/12/23 05:31:46;;;;;;;3.50;2.53;;;21.00;41.90;;;;;;5012695;28;20046;-69
2021/12/23 05:34:12;;;;;;;3.25;2.45;;;21.00;41.90;;;;;;5012857;28;20037;-69
2021/12/23 05:36:37;;;;;;;4.65;2.90;;;21.00;41.90;;;;;;5021321;28;20610;-68
2021/12/23 05:39:03;;;;;;;3.28;2.70;;;21.00;42.70;;;;;;5017965;28;20094;-69
2021/12/23 05:41:29;;;;;;;4.63;3.00;;;21.00;41.90;;;;;;5018883;28;20060;-68
2021/12/23 05:43:56;;;;;;;3.30;2.25;;;21.00;41.90;;;;;;5016577;28;20143;-68
2021/12/23 05:46:22;;;;;;;3.70;2.70;;;21.00;41.90;;;;;;5025348;28;20132;-67
2021/12/23 05:48:48;;;;;;;3.20;2.60;;;21.00;42.00;;;;;;5022805;28;20046;-68
2021/12/23 05:51:14;;;;;;;4.03;2.70;;;21.00;41.90;;;;;;5020510;28;20049;-68
2021/12/23 05:53:39;;;;;;;4.22;2.60;;;21.00;41.90;;;;;;5019018;28;20649;-67
2021/12/23 05:56:05;;;;;;;3.78;2.67;;;21.00;41.90;;;;;;5024788;28;20652;-69
2021/12/23 05:58:31;;;;;;;4.68;2.65;;;21.00;42.00;;;;;;5023139;28;21308;-68
2021/12/23 06:00:57;;;;;;;4.55;2.50;;;21.00;42.00;;;;;;5017543;28;20046;-67
2021/12/23 06:03:24;;;;;;;3.72;2.63;;;21.00;41.90;;;;;;5016265;28;20699;-69
2021/12/23 06:05:50;;;;;;;4.20;2.80;;;21.00;41.90;;;;;;5018475;28;20052;-67
2021/12/23 06:08:15;;;;;;;3.17;2.70;;;21.00;42.00;;;;;;5015498;28;20041;-68
2021/12/23 06:10:41;;;;;;;3.90;2.90;;;21.00;42.00;;;;;;5021236;28;20084;-67
2021/12/23 06:13:07;;;;;;;3.90;2.72;;;21.00;42.00;;;;;;5020696;28;20053;-69
2021/12/23 06:15:33;;;;;;;3.95;2.80;;;21.00;42.00;;;;;;5017279;28;20057;-68
2021/12/23 06:17:59;;;;;;;4.00;2.65;;;21.00;42.00;;;;;;5024717;28;20033;-68
2021/12/23 06:20:24;;;;;;;3.45;2.55;;;21.00;42.00;;;;;;5021448;28;20095;-69
2021/12/23 06:22:51;;;;;;;2.83;2.53;;;21.00;42.00;;;;;;5019686;28;20041;-67
2021/12/23 06:25:17;;;;;;;3.00;2.50;;;21.00;42.00;;;;;;5020355;28;20048;-67
2021/12/23 06:27:43;;;;;;;4.18;2.80;;;21.00;42.00;;;;;;5021118;28;20030;-68
2021/12/23 06:30:22;;;;;;;3.28;2.45;;;21.00;42.00;;;;;;5012360;28;20113;-65
2021/12/23 06:32:53;;;;;;;3.92;2.70;;;21.00;42.00;;;;;;5016697;28;20030;-67
2021/12/23 06:35:22;;;;;;;3.72;2.60;;;21.00;42.00;;;;;;5028020;28;20132;-67
2021/12/23 06:37:49;;;;;;;3.72;2.70;;;21.00;42.00;;;;;;5023151;28;20042;-68
2021/12/23 06:40:15;;;;;;;4.03;2.60;;;21.00;42.00;;;;;;5023046;28;20040;-68
2021/12/23 06:42:41;;;;;;;3.00;2.65;;;21.00;42.10;;;;;;5027074;28;20046;-69
2021/12/23 06:45:08;;;;;;;3.50;2.53;;;21.00;42.00;;;;;;5026599;28;20046;-69
2021/12/23 06:47:35;;;;;;;2.85;2.30;;;21.00;42.00;;;;;;5025769;28;20042;-68
2021/12/23 06:50:01;;;;;;;3.65;2.53;;;21.00;42.00;;;;;;5006891;28;20125;-66
2021/12/23 06:52:27;;;;;;;3.17;2.50;;;21.00;42.00;;;;;;5026778;28;20420;-68
2021/12/23 06:54:55;;;;;;;3.50;2.63;;;21.00;42.00;;;;;;5026911;28;20045;-69
2021/12/23 06:57:21;;;;;;;4.05;2.60;;;21.00;42.00;;;;;;5026291;28;20084;-69
2021/12/23 06:59:47;;;;;;;4.13;2.88;;;21.10;42.10;;;;;;5028470;28;20046;-66
2021/12/23 07:02:13;;;;;;;3.42;2.67;;;21.00;42.00;;;;;;5022864;28;20103;-68
2021/12/23 07:04:40;;;;;;;3.13;2.42;;;21.00;42.00;;;;;;5022311;28;20048;-69
2021/12/23 07:07:10;;;;;;;4.97;2.70;;;21.00;42.00;;;;;;5026917;28;20056;-69
2021/12/23 07:09:37;;;;;;;4.53;2.97;;;21.00;42.10;;;;;;5028339;28;20049;-67
2021/12/23 07:12:09;;;;;;;3.40;2.60;;;21.00;42.10;;;;;;5025199;28;20136;-69
2021/12/23 07:14:35;;;;;;;3.13;2.40;;;21.00;42.10;;;;;;5008316;28;20057;-69
2021/12/23 07:17:01;;;;;;;3.47;2.45;;;21.00;42.00;;;;;;5019613;28;20133;-69
2021/12/23 07:19:27;;;;;;;3.47;2.72;;;21.00;42.00;;;;;;5026476;28;20528;-68
2021/12/23 07:21:52;;;;;;;3.55;2.65;;;21.00;42.00;;;;;;5021207;28;20140;-68
2021/12/23 07:24:18;;;;;;;3.70;2.20;;;21.00;42.00;;;;;;5013494;28;20042;-67
2021/12/23 07:26:44;;;;;;;4.15;2.60;;;21.00;42.10;;;;;;5025330;28;20064;-69
2021/12/23 07:29:10;;;;;;;3.80;3.00;;;21.00;42.00;;;;;;5023901;28;20117;-67
2021/12/23 07:31:35;;;;;;;2.88;2.55;;;21.00;41.90;;;;;;5018311;28;20195;-67
2021/12/23 07:34:01;;;;;;;3.90;2.88;;;21.00;42.00;;;;;;5013867;28;20104;-67
2021/12/23 07:36:29;;;;;;;;;;;21.00;42.30;;;;;;5022452;28;20090;-69
2021/12/23 07:38:56;;;;;;;2.90;2.35;;;21.00;42.00;;;;;;5025250;28;20024;-70
2021/12/23 07:41:23;;;;;;;3.53;2.70;;;21.10;42.10;;;;;;5023228;28;20123;-73
2021/12/23 07:46:24;;;;;;;3.35;2.40;;;21.00;42.10;;;;;;5025582;28;20378;-70
2021/12/23 07:48:50;;;;;;;5.47;3.10;;;21.10;42.10;;;;;;5012997;28;20046;-69
2021/12/23 07:51:16;;;;;;;3.10;2.40;;;21.10;42.20;;;;;;5024510;28;20098;-68
2021/12/23 07:53:41;;;;;;;4.28;2.70;;;21.10;42.20;;;;;;5024969;28;20103;-70
2021/12/23 07:56:07;;;;;;;4.53;2.83;;;21.10;42.20;;;;;;5024321;28;20496;-68
2021/12/23 07:58:32;;;;;;;4.00;2.80;;;21.10;42.30;;;;;;5026413;28;20052;-73
2021/12/23 08:00:58;;;;;;;5.07;3.00;;;21.10;42.30;;;;;;5024294;28;20061;-71
2021/12/23 08:03:24;;;;;;;7.95;2.78;;;21.10;42.30;;;;;;5026326;28;20045;-71
2021/12/23 08:05:52;;;;;;;4.10;2.80;;;21.20;42.30;;;;;;5017511;28;20029;-74
2021/12/23 08:08:18;;;;;;;5.25;3.25;;;21.20;42.50;;;;;;5020453;28;20057;-76
2021/12/23 08:10:43;;;;;;;5.53;2.78;;;21.20;42.50;;;;;;5025050;28;20037;-74
2021/12/23 08:13:09;;;;;;;5.57;3.00;;;21.20;42.50;;;;;;5025376;28;20500;-76
2021/12/23 08:15:34;;;;;;;7.50;3.22;;;21.20;42.50;;;;;;5019847;28;20104;-74
2021/12/23 08:18:00;;;;;;;6.18;3.13;;;21.20;42.40;;;;;;5021342;28;20053;-76
2021/12/23 08:20:26;;;;;;;6.25;3.30;;;21.30;42.50;;;;;;5026113;28;20099;-76
2021/12/23 08:22:51;;;;;;;4.82;3.10;;;21.30;42.50;;;;;;5026718;28;20120;-75
2021/12/23 08:25:17;;;;;;;4.78;2.85;;;21.30;42.50;;;;;;5019731;28;20052;-76
2021/12/23 08:27:44;;;;;;;5.80;2.92;;;21.30;42.50;;;;;;5023251;28;20049;-73
2021/12/23 08:30:12;;;;;;;5.38;2.83;;;21.30;42.50;;;;;;5024305;28;20045;-74
2021/12/23 08:32:38;;;;;;;5.30;2.80;;;21.30;42.50;;;;;;5024865;28;20611;-70
2021/12/23 08:35:06;;;;;;;6.63;2.78;;;21.30;42.60;;;;;;5032330;28;20044;-74
2021/12/23 08:37:31;;;;;;;8.80;3.05;;;21.40;42.70;;;;;;5024314;28;20524;-76
2021/12/23 08:39:57;;;;;;;4.65;2.78;;;21.40;42.60;;;;;;5021060;28;20103;-72
2021/12/23 08:42:22;;;;;;;4.93;2.75;;;21.40;42.60;;;;;;5021158;28;20049;-73
2021/12/23 08:44:48;;;;;;;4.53;2.80;;;21.40;42.60;;;;;;5018750;28;20528;-74
2021/12/23 08:47:14;;;;;;;5.43;2.50;;;21.40;42.60;;;;;;5024028;28;20096;-70
2021/12/23 08:49:45;;;;;;;3.70;2.80;;;21.40;42.60;;;;;;5022902;28;20121;-75
2021/12/23 08:52:13;;;;;;;7.65;3.42;;;21.40;42.50;;;;;;5024147;28;20126;-69
2021/12/23 08:54:42;;;;;;;6.50;3.42;;;21.40;42.30;;;;;;5020449;28;20081;-70
2021/12/23 08:57:08;;;;;;;7.00;3.03;;;21.40;42.20;;;;;;5024362;28;20103;-74
2021/12/23 08:59:34;;;;;;;4.15;2.90;;;21.40;42.20;;;;;;5021286;28;20046;-77
2021/12/23 09:02:00;;;;;;;7.43;3.35;;;21.40;42.20;;;;;;5024758;28;20555;-73
2021/12/23 09:04:26;;;;;;;4.85;3.33;;;21.40;42.10;;;;;;5024160;28;20499;-72
2021/12/23 09:06:51;;;;;;;4.35;3.42;;;21.40;42.10;;;;;;5022562;28;20059;-71
2021/12/23 09:09:18;;;;;;;5.88;3.65;;;21.40;42.00;;;;;;5015582;28;20030;-73
2021/12/23 09:11:44;;;;;;;6.20;3.72;;;21.40;41.80;;;;;;5024740;28;20053;-68
2021/12/23 09:14:10;;;;;;;10.05;5.07;;;21.40;41.70;;;;;;5020746;28;20049;-64
2021/12/23 09:16:36;;;;;;;8.10;4.47;;;21.30;41.50;;;;;;5015278;28;20037;-74
2021/12/23 09:19:02;;;;;;;7.15;4.30;;;21.30;41.60;;;;;;5023902;28;20037;-75
2021/12/23 09:21:28;;;;;;;9.48;4.63;;;21.30;41.60;;;;;;5016457;28;20723;-75
2021/12/23 09:23:54;;;;;;;8.68;4.80;;;21.30;41.70;;;;;;5009281;28;20095;-75
2021/12/23 09:26:20;;;;;;;7.45;4.70;;;21.30;41.80;;;;;;5017630;28;20861;-76
2021/12/23 09:28:55;;;;;;;7.78;4.43;;;21.30;41.80;;;;;;5018627;28;20124;-75
2021/12/23 09:34:07;;;;;;;13.40;4.82;;;21.40;42.10;;;;;;5016059;28;20516;-73
2021/12/23 09:36:32;;;;;;;9.75;4.50;;;21.40;42.00;;;;;;5013242;28;20129;-73
2021/12/23 09:38:58;;;;;;;7.40;4.15;;;21.40;42.10;;;;;;5021020;28;20124;-75
2021/12/23 09:41:27;;;;;;;8.65;4.60;;;21.40;42.10;;;;;;5014074;28;20045;-72
2021/12/23 09:43:56;;;;;;;7.10;4.38;;;21.40;42.10;;;;;;5017592;28;20037;-74
2021/12/23 09:46:22;;;;;;;9.00;4.05;;;21.40;42.20;;;;;;5032192;28;20046;-74
2021/12/23 09:48:49;;;;;;;7.20;4.13;;;21.50;42.20;;;;;;5013491;28;20058;-74
2021/12/23 09:51:17;;;;;;;6.93;4.57;;;21.40;42.20;;;;;;5014325;28;20037;-74
2021/12/23 09:53:55;;;;;;;10.38;4.57;;;21.50;42.30;;;;;;5015423;28;20073;-77
2021/12/23 09:56:22;;;;;;;6.68;4.18;;;21.40;42.20;;;;;;5016621;28;20045;-73
2021/12/23 09:58:48;;;;;;;6.70;4.18;;;21.50;42.30;;;;;;5017256;28;20037;-79
2021/12/23 10:01:14;;;;;;;7.85;4.32;;;21.50;42.30;;;;;;5019157;28;20048;-77
2021/12/23 10:03:39;;;;;;;7.28;4.35;;;21.50;42.40;;;;;;5015811;28;21393;-73
2021/12/23 10:06:05;;;;;;;10.18;4.75;;;21.50;42.40;;;;;;5014658;28;20037;-71
2021/12/23 10:08:31;;;;;;;5.80;4.32;;;21.50;42.40;;;;;;5026807;28;20053;-74
2021/12/23 10:11:15;;;;;;;8.77;4.75;;;21.50;42.40;;;;;;5021705;28;20041;-74
2021/12/23 10:30:37;;;;;;;10.80;4.60;;;21.50;43.60;;;;;;5017079;28;20111;-72
2021/12/23 10:33:32;;;;;;;5.38;4.03;;;21.50;42.80;;;;;;5020124;28;20053;-74
2021/12/23 10:38:38;;;;;;;7.55;4.30;;;21.40;42.80;;;;;;5019471;28;20437;-74
2021/12/23 10:41:08;;;;;;;5.97;4.05;;;21.40;42.90;;;;;;5017437;28;20128;-74
2021/12/23 10:43:36;;;;;;;6.32;4.07;;;21.40;43.00;;;;;;5003503;28;20045;-72
2021/12/23 10:46:25;;;;;;;6.80;4.45;;;21.40;43.00;;;;;;5019887;28;20033;-73
2021/12/23 10:49:44;;;;;;;7.32;4.10;;;21.40;43.00;;;;;;5022387;28;20519;-74
2021/12/23 10:58:01;;;;;;;7.10;4.32;;;21.40;43.00;;;;;;5011004;28;20715;-73
2021/12/23 11:00:30;;;;;;;9.07;4.55;;;21.40;43.40;;;;;;5017240;28;20175;-74
2021/12/23 11:03:19;;;;;;;7.65;4.50;;;21.40;43.30;;;;;;5016122;28;20108;-73
2021/12/23 11:05:56;;;;;;;8.65;4.70;;;21.40;43.40;;;;;;5013364;28;20503;-72
2021/12/23 11:11:21;;;;;;;7.13;4.35;;;21.40;43.50;;;;;;5022854;28;20037;-74
2021/12/23 11:28:12;;;;;;;7.10;4.50;;;21.30;43.60;;;;;;5019172;28;20049;-74
2021/12/23 11:36:21;;;;;;;10.00;4.50;;;21.30;43.50;;;;;;5018527;28;20049;-78
2021/12/23 11:41:31;;;;;;;7.85;5.00;;;21.30;43.40;;;;;;5018571;28;20050;-75
2021/12/23 11:44:04;;;;;;;7.07;4.65;;;21.20;43.20;;;;;;5017112;28;20128;-76
2021/12/23 11:46:33;;;;;;;6.13;4.70;;;21.20;43.20;;;;;;5019592;28;20383;-75
2021/12/23 11:49:02;;;;;;;6.43;4.50;;;21.20;43.20;;;;;;5012650;28;20517;-73
2021/12/23 11:51:34;;;;;;;;;;;21.20;43.20;;;;;;5016969;28;20065;-79
2021/12/23 11:54:04;;;;;;;6.78;4.72;;;21.20;43.20;;;;;;5015419;28;20044;-75
2021/12/23 11:56:32;;;;;;;7.72;4.60;;;21.20;43.40;;;;;;5019399;28;20050;-78
2021/12/23 11:59:01;;;;;;;6.38;4.40;;;21.20;43.50;;;;;;5016913;28;20033;-71
2021/12/23 12:01:39;;;;;;;8.45;4.50;;;21.20;44.40;;;;;;5017525;28;20046;-68
2021/12/23 12:04:06;;;;;;;;;;;21.20;43.70;;;;;;5016061;28;20050;-69
2021/12/23 12:06:42;;;;;;;7.97;4.55;;;21.20;43.80;;;;;;5017822;28;19925;-69
2021/12/23 12:09:26;;;;;;;6.28;4.88;;;21.20;43.80;;;;;;5015319;28;20038;-68
2021/12/23 12:12:08;;;;;;;8.20;4.55;;;21.20;43.70;;;;;;5017700;28;20038;-67
2021/12/23 12:14:40;;;;;;;6.32;4.53;;;21.20;43.70;;;;;;5017226;28;20056;-71
2021/12/23 12:17:33;;;;;;;9.68;4.90;;;21.20;43.80;;;;;;5017555;28;20485;-75
2021/12/23 12:20:00;;;;;;;46.90;9.13;;;21.20;43.80;;;;;;5015797;28;20076;-76
2021/12/23 12:22:45;;;;;;;85.20;12.85;;;21.20;43.80;;;;;;5019267;28;20050;-79
2021/12/23 12:25:23;;;;;;;74.68;11.90;;;21.20;43.90;;;;;;5017677;28;20132;-82
2021/12/23 12:27:58;;;;;;;84.57;14.65;;;21.20;44.00;;;;;;5023102;28;20603;-76
2021/12/23 12:30:48;;;;;;;96.80;16.30;;;21.20;44.00;;;;;;5020221;28;20453;-78
2021/12/23 12:33:23;;;;;;;94.95;15.13;;;21.20;44.00;;;;;;5014874;28;20061;-78
2021/12/23 12:35:58;;;;;;;73.95;14.73;;;21.30;44.10;;;;;;5024329;28;20041;-72
2021/12/23 12:38:26;;;;;;;76.10;14.40;;;21.20;44.00;;;;;;5016224;28;21145;-75
2021/12/23 12:41:00;;;;;;;84.07;15.02;;;21.20;43.90;;;;;;5012253;28;20054;-73
2021/12/23 12:43:52;;;;;;;71.78;14.48;;;21.30;44.10;;;;;;5017327;28;20046;-76
2021/12/23 12:46:33;;;;;;;66.03;13.10;;;21.30;44.20;;;;;;5022257;28;20469;-74
2021/12/23 12:48:59;;;;;;;57.75;12.57;;;21.30;44.00;;;;;;5010507;28;20030;-75
2021/12/23 12:51:36;;;;;;;51.85;13.32;;;21.20;43.90;;;;;;5016748;28;20084;-73
2021/12/23 12:54:15;;;;;;;59.33;13.48;;;21.20;44.00;;;;;;5011287;28;20407;-74
2021/12/23 12:56:55;;;;;;;51.05;13.52;;;21.30;44.00;;;;;;5009731;28;20509;-75
2021/12/23 12:59:25;;;;;;;56.40;12.63;;;21.30;44.10;;;;;;5012599;28;20041;-72
2021/12/23 13:01:52;;;;;;;65.95;12.82;;;21.20;44.00;;;;;;5012818;28;20053;-70
2021/12/23 13:04:33;;;;;;;54.63;12.05;;;21.30;44.00;;;;;;5018446;28;20084;-73
2021/12/23 13:07:13;;;;;;;44.60;11.95;;;21.30;44.10;;;;;;5012338;28;20124;-70
2021/12/23 13:09:53;;;;;;;60.38;12.98;;;21.30;44.10;;;;;;5009522;28;20127;-71
2021/12/23 13:12:51;;;;;;;39.08;10.88;;;21.30;44.10;;;;;;5011519;28;20053;-71
2021/12/23 13:15:22;;;;;;;53.38;11.68;;;21.30;44.10;;;;;;4998793;28;20041;-68
2021/12/23 13:17:59;;;;;;;47.20;11.52;;;21.30;44.10;;;;;;5015311;28;20550;-67
2021/12/23 13:20:35;;;;;;;46.35;10.82;;;21.30;44.10;;;;;;5015730;28;20777;-75
2021/12/23 13:23:07;;;;;;;55.03;12.50;;;21.30;44.10;;;;;;5010558;28;20049;-75
2021/12/23 13:25:33;;;;;;;41.03;10.93;;;21.30;44.10;;;;;;5013422;28;20080;-73
2021/12/23 13:28:01;;;;;;;36.65;10.65;;;21.30;44.10;;;;;;5013670;28;20034;-73
2021/12/23 13:30:27;;;;;;;40.70;10.88;;;21.30;44.10;;;;;;5015530;28;20144;-72
2021/12/23 13:33:00;;;;;;;35.92;10.73;;;21.30;44.00;;;;;;5015140;28;20196;-77
2021/12/23 13:35:31;;;;;;;38.78;10.93;;;21.30;44.10;;;;;;5012335;28;20124;-76
2021/12/23 13:37:57;;;;;;;34.38;10.07;;;21.30;44.20;;;;;;5013509;28;20049;-74
2021/12/23 13:40:27;;;;;;;40.42;11.20;;;21.30;44.20;;;;;;5016477;28;20075;-73
2021/12/23 13:42:53;;;;;;;31.02;10.15;;;21.30;44.40;;;;;;5015342;28;20132;-75
2021/12/23 13:45:20;;;;;;;32.60;10.10;;;21.30;44.40;;;;;;5012180;28;20132;-74
2021/12/23 13:47:45;;;;;;;29.08;9.52;;;21.30;44.50;;;;;;5016165;28;20045;-74
2021/12/23 13:50:11;;;;;;;36.97;9.85;;;21.40;44.60;;;;;;5010889;28;20050;-75
2021/12/23 13:52:40;;;;;;;38.03;9.95;;;21.30;44.60;;;;;;5019929;28;20038;-75